< Typhoon 196311 1963 Season Typhoon 196313 >
Typhoon 196312 (ELAINE)
General InformationTrack Information on Google Maps || Disaster Info.ResourceGoogle EarthGE AnimationAtom FeedGeoJSON
Detalied Best Track (Time Zone = UTC)
Year Month Day Hour Lat. Long. Pressure (hPa) Wind (kt) Class Image Chart
1963 8 23 00 17.3 164.4 1006 0 2 -- Chart
1963 8 23 06 18.2 163.3 1004 0 2 -- Chart
1963 8 23 12 19.0 162.5 1004 0 2 -- Chart
1963 8 23 18 20.0 161.8 1004 0 2 -- Chart
1963 8 24 00 21.0 161.0 1004 0 2 -- Chart
1963 8 24 06 21.8 160.0 995 0 9 -- Chart
1963 8 24 12 22.3 158.8 995 0 9 -- Chart
1963 8 24 18 22.7 157.8 995 0 9 -- Chart
1963 8 25 00 23.4 156.9 995 0 9 -- Chart
1963 8 25 06 24.3 156.2 995 0 9 -- Chart
1963 8 25 12 25.2 155.7 995 0 9 -- Chart
1963 8 25 18 25.9 154.8 995 0 9 -- Chart
1963 8 26 00 26.6 154.0 995 0 9 -- Chart
1963 8 26 06 27.5 153.6 990 0 9 -- Chart
1963 8 26 12 28.7 153.6 990 0 9 -- Chart
1963 8 26 18 30.0 153.7 975 0 9 -- Chart
1963 8 27 00 31.4 154.5 970 0 9 -- Chart
1963 8 27 06 32.7 155.8 965 0 9 -- Chart
1963 8 27 12 34.0 157.0 970 0 9 -- Chart
1963 8 27 18 35.7 158.4 975 0 9 -- Chart
1963 8 28 00 37.5 160.4 980 0 6 -- Chart
1963 8 28 06 39.4 162.4 975 0 6 -- Chart
1963 8 28 12 41.5 163.5 980 0 6 -- Chart
1963 8 28 18 43.3 164.4 980 0 6 -- Chart
1963 8 29 00 44.2 165.2 980 0 6 -- Chart
1963 8 29 06 44.8 166.2 980 0 6 -- Chart
1963 8 29 12 45.1 167.1 972 0 6 -- Chart
1963 8 29 18 45.4 168.3 980 0 6 -- Chart
1963 8 30 00 45.5 170.0 986 0 6 -- Chart
1963 8 30 06 45.7 173.0 990 0 6 -- Chart
1963 8 30 12 46.1 177.1 990 0 6 -- Chart
1963 8 30 18 46.9 182.4 990 0 6 -- Chart
Japan Meteorological Agency Best Track Data | Correction Date : 1989-06-01
< Typhoon 196311 1963 Season Typhoon 196313 >

Help